createdAt,value
2023-05-17T00:01:27.031Z,57.59
2023-05-17T00:03:59.518Z,57.71
2023-05-17T00:06:32.904Z,58.13
2023-05-17T00:09:06.041Z,58.22
2023-05-17T00:11:38.990Z,58.57
2023-05-17T00:14:11.995Z,58.81
2023-05-17T00:16:44.698Z,58.99
2023-05-17T00:19:17.261Z,58.81
2023-05-17T00:21:49.867Z,58.74
2023-05-17T00:24:22.477Z,58.55
2023-05-17T00:26:55.072Z,58.42
2023-05-17T00:29:28.230Z,58.55
2023-05-17T00:32:00.685Z,58.69
2023-05-17T00:34:33.698Z,58.83
2023-05-17T00:37:06.642Z,59.00
2023-05-17T00:39:39.279Z,59.17
2023-05-17T00:42:12.128Z,59.32
2023-05-17T00:44:45.738Z,59.30
2023-05-17T00:47:18.340Z,59.61
2023-05-17T00:49:51.775Z,59.97
2023-05-17T00:52:24.407Z,60.14
2023-05-17T00:54:57.039Z,60.32
2023-05-17T00:57:30.135Z,60.59
2023-05-17T01:00:02.634Z,60.79
2023-05-17T01:02:37.283Z,60.95
2023-05-17T01:05:10.630Z,61.13
2023-05-17T01:07:47.523Z,61.32
2023-05-17T01:10:20.367Z,61.50
2023-05-17T01:13:05.976Z,61.60
2023-05-17T01:15:52.364Z,61.62
2023-05-17T01:18:39.925Z,61.72
2023-05-17T01:21:20.358Z,61.94
2023-05-17T01:24:19.033Z,62.16
2023-05-17T01:26:51.938Z,62.43
2023-05-17T01:29:28.689Z,62.69
2023-05-17T01:32:01.405Z,62.70
2023-05-17T01:34:34.093Z,62.48
2023-05-17T01:37:07.871Z,62.21
2023-05-17T01:39:41.825Z,62.25
2023-05-17T01:42:26.926Z,62.29
2023-05-17T01:45:14.549Z,62.49
2023-05-17T01:48:11.921Z,62.46
2023-05-17T01:50:44.405Z,62.53
2023-05-17T01:53:24.839Z,62.62
2023-05-17T01:56:01.287Z,62.58
2023-05-17T01:58:35.612Z,62.56
2023-05-17T02:01:08.466Z,62.50
2023-05-17T02:03:41.870Z,62.61
2023-05-17T02:06:14.549Z,62.65
2023-05-17T02:08:47.450Z,62.70
2023-05-17T02:11:20.068Z,62.72
2023-05-17T02:13:52.829Z,62.75
2023-05-17T02:16:25.932Z,62.76
2023-05-17T02:18:58.853Z,62.81
2023-05-17T02:21:31.602Z,62.84
2023-05-17T02:24:04.320Z,62.86
2023-05-17T02:26:37.581Z,63.04
2023-05-17T02:29:11.381Z,63.01
2023-05-17T02:31:44.033Z,62.95
2023-05-17T02:34:16.795Z,62.83
2023-05-17T02:36:49.867Z,62.63
2023-05-17T02:39:22.290Z,62.50
2023-05-17T02:41:54.831Z,62.24
2023-05-17T02:44:28.765Z,62.25
2023-05-17T02:47:02.397Z,62.27
2023-05-17T02:49:35.040Z,61.79
2023-05-17T02:52:08.600Z,61.77
2023-05-17T02:54:41.991Z,61.43
2023-05-17T02:57:15.001Z,61.32
2023-05-17T02:59:47.621Z,61.43
2023-05-17T03:02:20.512Z,61.36
2023-05-17T03:04:53.530Z,61.40
2023-05-17T03:07:26.207Z,61.73
2023-05-17T03:09:59.628Z,62.06
2023-05-17T03:12:34.541Z,62.43
2023-05-17T03:15:07.815Z,62.47
2023-05-17T03:17:40.581Z,62.19
2023-05-17T03:20:14.600Z,62.21
2023-05-17T03:22:48.182Z,62.32
2023-05-17T03:25:21.156Z,62.41
2023-05-17T03:27:55.063Z,62.28
2023-05-17T03:30:27.826Z,62.13
2023-05-17T03:33:00.971Z,62.13
2023-05-17T03:35:34.052Z,62.12
2023-05-17T03:38:07.356Z,62.02
2023-05-17T03:40:40.141Z,61.90
2023-05-17T03:43:12.594Z,62.00
2023-05-17T03:45:45.675Z,61.93
2023-05-17T03:48:18.289Z,62.15
2023-05-17T03:50:53.513Z,62.13
2023-05-17T03:53:27.282Z,61.99
2023-05-17T03:56:00.188Z,61.83
2023-05-17T03:58:33.896Z,60.99
2023-05-17T04:01:06.972Z,60.68
2023-05-17T04:03:40.972Z,60.49
2023-05-17T04:06:15.595Z,59.84
2023-05-17T04:08:49.608Z,60.01
2023-05-17T04:11:23.974Z,59.41
2023-05-17T04:13:57.226Z,59.34
2023-05-17T04:16:30.697Z,59.39
2023-05-17T04:19:03.657Z,58.95
2023-05-17T04:21:37.770Z,58.96
2023-05-17T04:24:11.047Z,58.86
2023-05-17T04:26:44.670Z,58.70
2023-05-17T04:29:19.448Z,58.19
2023-05-17T04:31:52.773Z,57.92
2023-05-17T04:34:26.555Z,57.74
2023-05-17T04:36:59.538Z,57.16
2023-05-17T04:39:32.810Z,57.16
2023-05-17T04:42:05.887Z,57.33
2023-05-17T04:44:39.327Z,57.47
2023-05-17T04:47:12.053Z,57.45
2023-05-17T04:49:44.621Z,57.38
2023-05-17T04:52:17.784Z,57.15
2023-05-17T04:54:52.250Z,57.01
2023-05-17T04:57:25.366Z,57.21
2023-05-17T04:59:59.992Z,57.15
2023-05-17T05:02:33.767Z,56.88
2023-05-17T05:05:07.953Z,56.95
2023-05-17T05:07:41.403Z,56.94
2023-05-17T05:10:14.779Z,56.95
2023-05-17T05:12:47.662Z,56.89
2023-05-17T05:15:20.420Z,57.04
2023-05-17T05:17:54.782Z,57.12
2023-05-17T05:20:28.253Z,57.17
2023-05-17T05:23:03.046Z,57.32
2023-05-17T05:25:38.462Z,57.54
2023-05-17T05:28:11.416Z,57.83
2023-05-17T05:30:45.057Z,57.86
2023-05-17T05:33:18.407Z,57.72
2023-05-17T05:35:51.430Z,57.58
2023-05-17T05:38:25.846Z,57.50
2023-05-17T05:40:58.342Z,57.45
2023-05-17T05:43:30.925Z,57.21
2023-05-17T05:46:04.043Z,57.18
2023-05-17T05:48:39.026Z,57.12
2023-05-17T05:51:12.501Z,56.81
2023-05-17T05:53:45.911Z,56.71
2023-05-17T05:56:18.768Z,56.70
2023-05-17T05:58:51.375Z,56.73
2023-05-17T06:01:25.610Z,56.67
2023-05-17T06:03:58.266Z,56.63
2023-05-17T06:06:31.887Z,56.81
2023-05-17T06:09:06.528Z,56.21
2023-05-17T06:11:39.968Z,55.80
2023-05-17T06:14:12.699Z,55.36
2023-05-17T06:16:45.474Z,55.13
2023-05-17T06:19:18.966Z,54.85
2023-05-17T06:21:52.179Z,54.90
2023-05-17T06:24:24.637Z,54.79
2023-05-17T06:26:57.535Z,54.54
2023-05-17T06:29:30.156Z,54.42
2023-05-17T06:32:03.066Z,54.24
2023-05-17T06:34:36.150Z,53.92
2023-05-17T06:37:08.845Z,53.76
2023-05-17T06:39:42.606Z,53.48
2023-05-17T06:42:15.364Z,53.19
2023-05-17T06:44:47.753Z,53.04
2023-05-17T06:47:20.600Z,52.86
2023-05-17T06:49:53.170Z,52.40
2023-05-17T06:52:25.794Z,52.32
2023-05-17T06:54:58.368Z,51.73
2023-05-17T06:57:30.981Z,51.40
2023-05-17T07:02:56.598Z,50.52
2023-05-17T07:05:31.164Z,49.96
2023-05-17T07:08:04.063Z,49.54
2023-05-17T07:10:36.781Z,48.88
2023-05-17T07:13:09.978Z,48.79
2023-05-17T07:15:42.747Z,48.07
2023-05-17T07:18:15.440Z,47.79
2023-05-17T07:20:48.583Z,47.68
2023-05-17T07:23:21.310Z,47.72
2023-05-17T07:25:54.478Z,47.69
2023-05-17T07:28:27.253Z,47.57
2023-05-17T07:30:59.991Z,47.33
2023-05-17T07:33:33.070Z,47.20
2023-05-17T07:36:06.953Z,47.13
2023-05-17T07:38:39.666Z,47.06
2023-05-17T07:43:56.853Z,47.38
2023-05-17T07:46:29.642Z,47.17
2023-05-17T07:49:02.376Z,47.36
2023-05-17T07:51:36.541Z,47.74
2023-05-17T07:54:09.271Z,47.71
2023-05-17T07:56:42.326Z,47.50
2023-05-17T07:59:15.745Z,47.66
2023-05-17T08:01:49.015Z,47.75
2023-05-17T08:04:24.329Z,47.81
2023-05-17T08:07:08.507Z,47.94
2023-05-17T08:09:43.264Z,48.02
2023-05-17T08:12:15.932Z,48.14
2023-05-17T08:14:48.534Z,48.12
2023-05-17T08:17:22.726Z,48.38
2023-05-17T08:19:56.930Z,48.30
2023-05-17T08:22:29.709Z,48.43
2023-05-17T08:25:03.391Z,48.28
2023-05-17T08:27:35.893Z,48.51
2023-05-17T08:30:14.905Z,48.47
2023-05-17T08:32:45.645Z,48.65
2023-05-17T08:35:19.410Z,48.83
2023-05-17T08:37:52.373Z,48.32
2023-05-17T08:40:25.734Z,48.23
2023-05-17T08:42:58.467Z,48.14
2023-05-17T08:45:32.624Z,47.74
2023-05-17T08:48:06.220Z,47.75
2023-05-17T08:50:39.686Z,47.86
2023-05-17T08:53:12.465Z,47.45
2023-05-17T08:55:49.249Z,47.25
2023-05-17T08:58:26.794Z,47.06
2023-05-17T09:00:59.697Z,46.77
2023-05-17T09:03:32.386Z,46.56
2023-05-17T09:06:06.166Z,46.30
2023-05-17T09:08:40.125Z,46.51
2023-05-17T09:11:12.760Z,46.44
2023-05-17T09:13:47.138Z,46.11
2023-05-17T09:16:22.300Z,45.83
2023-05-17T09:18:59.145Z,45.99
2023-05-17T09:21:32.439Z,45.99
2023-05-17T09:24:07.888Z,46.07
2023-05-17T09:26:43.228Z,46.69
2023-05-17T09:29:17.609Z,46.88
2023-05-17T09:31:51.056Z,46.42
2023-05-17T09:34:25.975Z,46.00
2023-05-17T09:36:58.755Z,45.38
2023-05-17T09:39:32.206Z,44.56
2023-05-17T09:42:05.448Z,44.03
2023-05-17T09:44:56.866Z,43.72
2023-05-17T09:47:30.952Z,43.68
2023-05-17T09:50:05.036Z,43.53
2023-05-17T09:52:37.883Z,42.81
2023-05-17T09:55:12.525Z,42.14
2023-05-17T09:57:47.193Z,41.02
2023-05-17T10:00:20.847Z,40.82
2023-05-17T10:02:53.519Z,40.11
2023-05-17T10:05:26.783Z,39.71
2023-05-17T10:07:59.779Z,39.19
2023-05-17T10:10:32.793Z,38.94
2023-05-17T10:13:06.735Z,38.74
2023-05-17T10:15:40.320Z,38.58
2023-05-17T10:18:14.038Z,37.95
2023-05-17T10:20:46.657Z,37.93
2023-05-17T10:23:19.374Z,37.92
2023-05-17T10:25:53.176Z,36.44
2023-05-17T10:28:26.167Z,35.59
2023-05-17T10:30:58.921Z,35.81
2023-05-17T10:33:34.237Z,34.01
2023-05-17T10:36:07.514Z,34.79
2023-05-17T10:38:42.899Z,34.76
2023-05-17T10:41:14.474Z,33.79
2023-05-17T10:43:47.526Z,33.50
2023-05-17T10:46:22.756Z,32.99
2023-05-17T10:48:57.014Z,33.36
2023-05-17T10:51:34.143Z,32.09
2023-05-17T10:54:15.971Z,32.41
2023-05-17T10:56:53.239Z,31.90
2023-05-17T10:59:28.405Z,32.11
2023-05-17T11:02:07.214Z,32.07
2023-05-17T11:04:42.376Z,32.19
2023-05-17T11:07:41.196Z,31.56
2023-05-17T11:10:16.540Z,31.29
2023-05-17T11:12:51.719Z,31.69
2023-05-17T11:15:27.239Z,31.51
2023-05-17T11:18:01.255Z,31.24
2023-05-17T11:20:53.976Z,31.27
2023-05-17T11:23:28.977Z,31.55
2023-05-17T11:26:24.433Z,31.37
2023-05-17T11:29:09.045Z,31.37
2023-05-17T11:31:46.309Z,31.72
2023-05-17T11:34:21.860Z,31.44
2023-05-17T11:36:56.741Z,31.32
2023-05-17T11:39:29.907Z,31.23
2023-05-17T11:42:02.611Z,30.94
2023-05-17T11:44:35.659Z,30.59
2023-05-17T11:47:10.102Z,30.81
2023-05-17T11:49:42.565Z,31.27
2023-05-17T11:52:16.028Z,31.58
2023-05-17T11:54:50.086Z,31.56
2023-05-17T11:57:23.091Z,31.77
2023-05-17T12:00:01.876Z,31.57
2023-05-17T12:02:38.527Z,31.70
2023-05-17T12:05:11.608Z,31.84
2023-05-17T12:07:44.413Z,32.01
2023-05-17T12:10:17.278Z,31.88
2023-05-17T12:12:50.761Z,32.15
2023-05-17T12:15:23.597Z,32.28
2023-05-17T12:17:57.580Z,32.14
2023-05-17T12:20:32.425Z,32.20
2023-05-17T12:23:05.559Z,32.64
2023-05-17T12:25:39.700Z,32.79
2023-05-17T12:28:23.036Z,33.00
2023-05-17T12:30:58.080Z,33.22
2023-05-17T12:33:56.624Z,33.75
2023-05-17T12:36:30.594Z,34.05
2023-05-17T12:39:03.415Z,34.01
2023-05-17T12:41:36.136Z,33.89
2023-05-17T12:44:15.752Z,34.01
2023-05-17T12:46:48.322Z,33.79
2023-05-17T12:49:22.048Z,34.06
2023-05-17T12:51:55.087Z,33.77
2023-05-17T12:54:29.485Z,33.70
2023-05-17T12:57:15.086Z,33.78
2023-05-17T12:59:56.715Z,33.73
2023-05-17T13:02:30.862Z,33.69
2023-05-17T13:05:16.753Z,32.72
2023-05-17T13:07:49.698Z,32.95
2023-05-17T13:10:27.371Z,32.29
2023-05-17T13:13:01.783Z,32.29
2023-05-17T13:15:35.852Z,32.32
2023-05-17T13:18:20.895Z,32.35
2023-05-17T13:20:53.654Z,32.19
2023-05-17T13:23:26.298Z,31.86
2023-05-17T13:25:59.226Z,32.02
2023-05-17T13:28:32.830Z,32.11
2023-05-17T13:31:07.560Z,31.68
2023-05-17T13:33:41.483Z,31.50
2023-05-17T13:36:14.419Z,31.39
2023-05-17T13:38:47.251Z,31.06
2023-05-17T13:41:19.792Z,31.02
2023-05-17T13:43:53.510Z,31.02
2023-05-17T13:46:28.496Z,31.04
2023-05-17T13:49:02.913Z,31.21
2023-05-17T13:51:37.935Z,31.37
2023-05-17T13:54:11.721Z,30.62
2023-05-17T13:56:45.057Z,30.49
2023-05-17T13:59:17.779Z,29.66
2023-05-17T14:01:50.531Z,29.65
2023-05-17T14:04:23.520Z,28.77
2023-05-17T14:06:56.564Z,28.86
2023-05-17T14:09:50.932Z,28.84
2023-05-17T14:12:23.783Z,28.98
2023-05-17T14:14:56.558Z,29.05
2023-05-17T14:17:29.154Z,28.71
2023-05-17T14:20:01.961Z,28.05
2023-05-17T14:22:36.399Z,27.91
2023-05-17T14:25:29.399Z,28.08
2023-05-17T14:28:02.517Z,27.78
2023-05-17T14:30:35.779Z,27.75
2023-05-17T14:33:09.006Z,27.76
2023-05-17T14:35:42.119Z,27.90
2023-05-17T14:38:15.134Z,28.96
2023-05-17T14:40:48.560Z,29.49
2023-05-17T14:43:21.290Z,29.83
2023-05-17T14:45:54.327Z,30.58
2023-05-17T14:48:27.164Z,31.10
2023-05-17T14:51:00.019Z,32.00
2023-05-17T14:53:33.082Z,32.42
2023-05-17T14:56:06.080Z,32.01
2023-05-17T14:58:39.570Z,32.33
2023-05-17T15:01:12.650Z,32.79
2023-05-17T15:03:45.327Z,33.35
2023-05-17T15:06:18.183Z,33.65
2023-05-17T15:08:50.668Z,33.75
2023-05-17T15:11:23.957Z,33.51
2023-05-17T15:13:57.621Z,33.40
2023-05-17T15:16:30.482Z,33.20
2023-05-17T15:19:03.551Z,32.48
2023-05-17T15:21:36.513Z,33.46
2023-05-17T15:24:10.582Z,33.16
2023-05-17T15:26:44.580Z,33.67
2023-05-17T15:29:18.251Z,34.08
2023-05-17T15:31:51.956Z,33.62
2023-05-17T15:34:26.644Z,33.63
2023-05-17T15:36:59.788Z,33.45
2023-05-17T15:39:32.518Z,32.92
2023-05-17T15:42:06.160Z,32.63
2023-05-17T15:44:39.324Z,33.35
2023-05-17T15:47:11.927Z,33.77
2023-05-17T15:49:44.615Z,33.38
2023-05-17T15:52:17.343Z,32.84
2023-05-17T15:54:50.701Z,32.51
2023-05-17T15:57:23.396Z,31.92
2023-05-17T15:59:55.992Z,31.55
2023-05-17T16:02:28.850Z,31.94
2023-05-17T16:05:03.824Z,32.06
2023-05-17T16:07:35.472Z,32.06
2023-05-17T16:10:09.496Z,31.76
2023-05-17T16:12:42.650Z,31.67
2023-05-17T16:15:15.228Z,31.80
2023-05-17T16:17:49.636Z,32.14
2023-05-17T16:20:22.795Z,31.80
2023-05-17T16:22:55.628Z,31.43
2023-05-17T16:25:29.048Z,31.89
2023-05-17T16:28:04.917Z,31.53
2023-05-17T16:30:38.351Z,31.37
2023-05-17T16:33:13.493Z,31.37
2023-05-17T16:35:46.385Z,31.36
2023-05-17T16:38:19.000Z,31.40
2023-05-17T16:40:51.679Z,31.40
2023-05-17T16:43:24.245Z,31.22
2023-05-17T16:45:57.000Z,31.76
2023-05-17T16:48:30.299Z,32.32
2023-05-17T16:51:03.375Z,31.97
2023-05-17T16:53:36.682Z,32.26
2023-05-17T16:56:09.554Z,33.12
2023-05-17T16:58:43.289Z,32.70
2023-05-17T17:01:16.807Z,32.77
2023-05-17T17:03:49.993Z,32.66
2023-05-17T17:06:34.726Z,33.30
2023-05-17T17:09:08.872Z,33.30
2023-05-17T17:11:42.107Z,34.99
2023-05-17T17:14:14.931Z,34.12
2023-05-17T17:16:48.068Z,34.26
2023-05-17T17:19:20.885Z,33.95
2023-05-17T17:21:53.835Z,34.83
2023-05-17T17:24:26.991Z,35.34
2023-05-17T17:27:00.939Z,36.01
2023-05-17T17:29:35.518Z,36.25
2023-05-17T17:32:09.613Z,35.74
2023-05-17T17:34:42.562Z,35.42
2023-05-17T17:37:15.357Z,36.93
2023-05-17T17:39:48.370Z,36.36
2023-05-17T17:42:21.638Z,37.27
2023-05-17T17:44:55.130Z,37.69
2023-05-17T17:47:27.760Z,39.62
2023-05-17T17:50:02.057Z,40.67
2023-05-17T17:52:37.698Z,40.48
2023-05-17T17:55:13.337Z,40.85
2023-05-17T17:57:46.712Z,40.47
2023-05-17T18:00:19.487Z,42.65
2023-05-17T18:02:52.356Z,42.39
2023-05-17T18:05:26.410Z,42.43
2023-05-17T18:07:59.130Z,42.55
2023-05-17T18:10:32.300Z,44.18
2023-05-17T18:13:05.385Z,44.24
2023-05-17T18:15:38.709Z,43.50
2023-05-17T18:18:12.335Z,43.66
2023-05-17T18:20:46.533Z,43.51
2023-05-17T18:23:20.877Z,42.96
2023-05-17T18:25:54.529Z,43.44
2023-05-17T18:28:38.091Z,44.46
2023-05-17T18:31:04.595Z,44.30
2023-05-17T18:33:38.660Z,44.73
2023-05-17T18:36:11.857Z,45.97
2023-05-17T18:38:45.975Z,45.15
2023-05-17T18:41:18.941Z,46.63
2023-05-17T18:43:52.347Z,46.33
2023-05-17T18:46:25.224Z,45.12
2023-05-17T18:48:57.941Z,45.39
2023-05-17T18:51:31.771Z,45.13
2023-05-17T18:54:04.960Z,45.53
2023-05-17T18:56:38.801Z,46.06
2023-05-17T18:59:11.938Z,45.70
2023-05-17T19:01:46.550Z,46.42
2023-05-17T19:04:19.297Z,45.56
2023-05-17T19:06:52.445Z,45.43
2023-05-17T19:09:25.737Z,45.10
2023-05-17T19:11:59.387Z,44.94
2023-05-17T19:14:32.571Z,45.04
2023-05-17T19:17:05.603Z,46.01
2023-05-17T19:19:42.914Z,46.52
2023-05-17T19:22:16.697Z,48.04
2023-05-17T19:24:51.263Z,46.77
2023-05-17T19:27:23.918Z,46.93
2023-05-17T19:29:56.511Z,47.45
2023-05-17T19:32:31.480Z,46.90
2023-05-17T19:35:04.766Z,46.18
2023-05-17T19:37:38.252Z,46.90
2023-05-17T19:40:13.177Z,45.84
2023-05-17T19:42:47.342Z,45.36
2023-05-17T19:45:20.576Z,45.96
2023-05-17T19:47:53.932Z,46.17
2023-05-17T19:50:28.530Z,46.15
2023-05-17T19:53:02.373Z,45.77
2023-05-17T19:55:36.966Z,45.41
2023-05-17T19:58:09.968Z,45.21
2023-05-17T20:00:43.679Z,46.26
2023-05-17T20:03:16.644Z,45.24
2023-05-17T20:05:50.328Z,46.39
2023-05-17T20:08:23.875Z,45.43
2023-05-17T20:10:57.784Z,45.58
2023-05-17T20:13:31.820Z,45.40
2023-05-17T20:16:11.569Z,46.26
2023-05-17T20:18:45.270Z,45.96
2023-05-17T20:21:23.097Z,45.85
2023-05-17T20:24:04.184Z,46.32
2023-05-17T20:26:37.304Z,45.72
2023-05-17T20:29:10.449Z,46.12
2023-05-17T20:31:43.105Z,46.11
2023-05-17T20:34:16.146Z,46.86
2023-05-17T20:36:49.360Z,46.91
2023-05-17T20:39:22.333Z,47.29
2023-05-17T20:41:57.270Z,47.01
2023-05-17T20:44:29.883Z,46.74
2023-05-17T20:47:02.456Z,47.27
2023-05-17T20:49:35.133Z,47.76
2023-05-17T20:52:08.108Z,48.10
2023-05-17T20:54:40.595Z,48.85
2023-05-17T20:57:13.364Z,49.73
2023-05-17T20:59:46.194Z,49.53
2023-05-17T21:02:18.752Z,49.83
2023-05-17T21:04:52.926Z,50.85
2023-05-17T21:07:26.793Z,51.09
2023-05-17T21:09:59.366Z,51.42
2023-05-17T21:12:31.864Z,51.48
2023-05-17T21:15:16.441Z,52.31
2023-05-17T21:17:39.417Z,52.40
2023-05-17T21:20:12.848Z,52.62
2023-05-17T21:22:46.057Z,53.04
2023-05-17T21:25:19.233Z,53.15
2023-05-17T21:27:52.218Z,53.75
2023-05-17T21:30:25.578Z,54.06
2023-05-17T21:32:58.517Z,53.02
2023-05-17T21:35:31.258Z,52.64
2023-05-17T21:38:03.906Z,52.93
2023-05-17T21:40:38.109Z,53.41
2023-05-17T21:43:11.401Z,54.14
2023-05-17T21:45:43.960Z,54.02
2023-05-17T21:48:16.497Z,53.63
2023-05-17T21:50:50.075Z,53.38
2023-05-17T21:53:23.398Z,53.57
2023-05-17T21:56:02.042Z,53.66
2023-05-17T21:58:30.950Z,54.47
2023-05-17T22:01:03.718Z,54.43
2023-05-17T22:03:43.905Z,54.08
2023-05-17T22:06:17.645Z,54.93
2023-05-17T22:14:57.064Z,54.79
2023-05-17T22:17:39.243Z,55.06
2023-05-17T22:20:05.693Z,55.34
2023-05-17T22:22:38.561Z,55.35
2023-05-17T22:25:11.601Z,56.01
2023-05-17T22:27:45.699Z,56.34
2023-05-17T22:30:18.456Z,56.46
2023-05-17T22:32:52.987Z,56.69
2023-05-17T22:35:26.286Z,56.41
2023-05-17T22:37:58.863Z,56.66
2023-05-17T22:40:32.044Z,56.74
2023-05-17T22:43:04.909Z,57.11
2023-05-17T22:45:37.870Z,57.89
2023-05-17T22:48:10.977Z,58.41
2023-05-17T22:50:44.847Z,58.97
2023-05-17T22:53:18.795Z,58.79
2023-05-17T22:55:51.752Z,58.66
2023-05-17T22:58:24.476Z,58.55
2023-05-17T23:00:57.434Z,58.55
2023-05-17T23:03:30.347Z,58.07
2023-05-17T23:06:03.671Z,58.14
2023-05-17T23:08:36.346Z,57.98
2023-05-17T23:11:09.314Z,58.02
2023-05-17T23:13:43.506Z,58.29
2023-05-17T23:16:16.128Z,57.94
2023-05-17T23:18:49.495Z,58.03
2023-05-17T23:21:22.238Z,58.27
2023-05-17T23:23:55.714Z,58.20
2023-05-17T23:26:29.113Z,58.26
2023-05-17T23:29:03.383Z,58.87
2023-05-17T23:31:36.589Z,59.60
2023-05-17T23:34:09.523Z,60.31
2023-05-17T23:36:42.232Z,61.56
2023-05-17T23:39:14.743Z,62.37
2023-05-17T23:41:47.391Z,63.12
2023-05-17T23:44:20.022Z,63.31
2023-05-17T23:46:54.126Z,62.38
2023-05-17T23:49:27.722Z,62.32
2023-05-17T23:52:00.343Z,62.38
2023-05-17T23:54:33.268Z,62.53
2023-05-17T23:57:06.616Z,62.67
2023-05-17T23:59:39.203Z,62.72
